Time;durP1;ratioP1;P1;durP2;ratioP2;P2;SDS_P1;SDS_P2;PMS_P1;PMS_P2;Temp;Humidity;BMP_temperature;BMP_pressure;BME280_temperature;BME280_humidity;BME280_pressure;Samples;Min_cycle;Max_cycle;Signal;HPM_P1;HPM_P2
2021/07/09 00:01:56;;;;;;;11.70;10.50;;;19.30;99.90;;;;;;5030758;28;20030;-66
2021/07/09 00:04:22;;;;;;;13.07;11.25;;;19.30;99.90;;;;;;5030738;28;20495;-67
2021/07/09 00:06:51;;;;;;;10.98;9.77;;;19.40;99.90;;;;;;5025254;28;20499;-66
2021/07/09 00:09:18;;;;;;;13.48;10.65;;;19.40;99.90;;;;;;5019902;28;20049;-66
2021/07/09 00:11:47;;;;;;;10.52;9.43;;;19.40;99.90;;;;;;5027455;28;20022;-68
2021/07/09 00:14:14;;;;;;;10.70;8.85;;;19.30;99.90;;;;;;5011109;28;20038;-67
2021/07/09 00:16:43;;;;;;;9.82;8.82;;;19.30;99.90;;;;;;5015555;28;20378;-67
2021/07/09 00:19:09;;;;;;;8.93;8.07;;;19.30;99.90;;;;;;5029557;28;20029;-67
2021/07/09 00:21:35;;;;;;;9.80;8.68;;;19.30;99.90;;;;;;5030353;28;20022;-67
2021/07/09 00:24:03;;;;;;;10.02;8.70;;;19.30;99.90;;;;;;5021418;28;20029;-66
2021/07/09 00:26:30;;;;;;;8.52;7.60;;;19.30;99.90;;;;;;5021471;28;20065;-66
2021/07/09 00:28:59;;;;;;;12.50;8.93;;;19.30;99.90;;;;;;5020564;28;20600;-66
2021/07/09 00:31:29;;;;;;;8.50;7.65;;;19.20;99.20;;;;;;5013459;28;20038;-67
2021/07/09 00:33:59;;;;;;;9.15;7.53;;;19.10;99.70;;;;;;5029340;28;20579;-67
2021/07/09 00:36:25;;;;;;;8.55;7.38;;;19.10;99.90;;;;;;5031802;28;20017;-67
2021/07/09 00:38:51;;;;;;;8.25;7.45;;;19.10;99.70;;;;;;5030860;28;20026;-68
2021/07/09 00:41:17;;;;;;;8.30;7.10;;;19.00;99.70;;;;;;5023320;28;20021;-69
2021/07/09 00:43:43;;;;;;;8.13;7.20;;;19.00;99.30;;;;;;5014791;28;20551;-67
2021/07/09 00:46:09;;;;;;;8.07;7.25;;;19.00;99.90;;;;;;5014855;28;20149;-68
2021/07/09 00:48:35;;;;;;;8.48;7.57;;;19.00;99.90;;;;;;5018464;28;20582;-67
2021/07/09 00:51:10;;;;;;;8.35;7.25;;;19.00;99.90;;;;;;5028166;28;20472;-69
2021/07/09 00:53:36;;;;;;;8.95;6.97;;;19.00;99.90;;;;;;5011015;28;20061;-66
2021/07/09 00:56:03;;;;;;;11.63;7.47;;;19.00;99.90;;;;;;5019316;28;20104;-66
2021/07/09 00:58:29;;;;;;;7.95;6.97;;;19.00;99.90;;;;;;5026529;28;20151;-68
2021/07/09 01:00:56;;;;;;;7.47;6.78;;;19.00;99.90;;;;;;5016591;28;20616;-66
2021/07/09 01:03:22;;;;;;;7.28;6.57;;;19.00;99.90;;;;;;5034069;28;20065;-67
2021/07/09 01:05:48;;;;;;;7.70;7.00;;;19.00;99.70;;;;;;5028215;28;20069;-66
2021/07/09 01:08:14;;;;;;;7.55;6.85;;;18.90;99.60;;;;;;5012911;28;20070;-66
2021/07/09 01:10:43;;;;;;;7.00;6.05;;;18.90;99.80;;;;;;5018830;28;20065;-67
2021/07/09 01:13:10;;;;;;;7.68;6.55;;;18.90;99.90;;;;;;5026850;28;20429;-66
2021/07/09 01:15:36;;;;;;;6.45;5.85;;;18.90;99.60;;;;;;5018292;28;20022;-67
2021/07/09 01:18:03;;;;;;;7.07;6.00;;;18.80;99.70;;;;;;5030388;28;20155;-68
2021/07/09 01:20:29;;;;;;;8.27;6.00;;;18.90;99.90;;;;;;5030590;28;20660;-66
2021/07/09 01:22:56;;;;;;;6.93;6.18;;;18.90;99.90;;;;;;5013775;28;20033;-67
2021/07/09 01:25:27;;;;;;;9.77;5.82;;;18.90;99.90;;;;;;5013766;28;20041;-67
2021/07/09 01:27:59;;;;;;;7.38;6.43;;;18.90;99.90;;;;;;5018739;28;20561;-67
2021/07/09 01:30:26;;;;;;;7.20;6.50;;;18.90;99.90;;;;;;5023475;28;20051;-67
2021/07/09 01:32:53;;;;;;;7.72;6.10;;;18.90;99.90;;;;;;5013677;28;20456;-67
2021/07/09 01:35:20;;;;;;;6.22;5.57;;;18.80;99.90;;;;;;5025408;28;20039;-68
2021/07/09 01:38:07;;;;;;;8.55;6.30;;;18.80;99.70;;;;;;5029324;28;20585;-66
2021/07/09 01:40:34;;;;;;;7.55;5.80;;;18.80;99.90;;;;;;5015087;28;20034;-67
2021/07/09 01:43:02;;;;;;;6.47;5.88;;;18.80;99.90;;;;;;5021565;28;20026;-67
2021/07/09 01:45:28;;;;;;;6.20;5.60;;;18.80;99.90;;;;;;5019910;28;20034;-66
2021/07/09 01:47:55;;;;;;;7.20;6.50;;;18.80;99.90;;;;;;5015282;28;20030;-66
2021/07/09 01:50:21;;;;;;;7.68;6.80;;;18.80;99.90;;;;;;5029779;28;20030;-66
2021/07/09 01:52:47;;;;;;;7.53;6.63;;;18.80;99.90;;;;;;5013085;28;20037;-66
2021/07/09 01:55:14;;;;;;;7.03;6.32;;;18.80;99.90;;;;;;5015664;28;20502;-67
2021/07/09 01:57:41;;;;;;;8.48;6.75;;;18.80;99.90;;;;;;5031645;28;20103;-65
2021/07/09 02:00:11;;;;;;;7.22;6.47;;;18.80;99.90;;;;;;5031927;28;20057;-67
2021/07/09 02:02:39;;;;;;;8.98;6.45;;;18.90;99.90;;;;;;5016431;28;20427;-68
2021/07/09 02:05:08;;;;;;;7.50;6.47;;;18.80;99.90;;;;;;5025013;28;20130;-67
2021/07/09 02:07:33;;;;;;;7.18;6.47;;;18.80;99.90;;;;;;5017493;28;20032;-66
2021/07/09 02:09:59;;;;;;;7.57;6.80;;;18.80;99.90;;;;;;5032751;28;20128;-66
2021/07/09 02:12:27;;;;;;;8.68;6.20;;;18.80;99.90;;;;;;5021655;28;20034;-66
2021/07/09 02:14:54;;;;;;;8.93;6.22;;;18.70;99.90;;;;;;5012654;28;20045;-66
2021/07/09 02:17:22;;;;;;;9.50;6.85;;;18.70;99.90;;;;;;5016639;28;20076;-67
2021/07/09 02:19:48;;;;;;;11.35;7.47;;;18.70;99.90;;;;;;5020535;28;20407;-67
2021/07/09 02:22:15;;;;;;;8.63;7.38;;;18.70;99.90;;;;;;5012845;28;20036;-66
2021/07/09 02:24:43;;;;;;;7.65;6.43;;;18.70;99.80;;;;;;5027720;28;20025;-66
2021/07/09 02:27:09;;;;;;;9.40;7.10;;;18.70;99.90;;;;;;5030896;28;20033;-66
2021/07/09 02:29:36;;;;;;;9.55;6.85;;;18.70;99.90;;;;;;5012259;28;20041;-66
2021/07/09 02:32:05;;;;;;;7.50;6.68;;;18.70;99.90;;;;;;5012429;28;20042;-67
2021/07/09 02:34:32;;;;;;;7.57;6.88;;;18.80;99.90;;;;;;5015806;28;20025;-66
2021/07/09 02:36:59;;;;;;;7.13;6.43;;;18.70;99.90;;;;;;5019507;28;20465;-67
2021/07/09 02:39:25;;;;;;;8.63;6.72;;;18.80;99.90;;;;;;5017482;28;20029;-67
2021/07/09 02:41:55;;;;;;;6.60;6.00;;;18.80;99.90;;;;;;5012297;28;20026;-67
2021/07/09 02:44:22;;;;;;;6.47;5.87;;;18.80;99.90;;;;;;5014040;28;20057;-67
2021/07/09 02:46:48;;;;;;;6.85;5.97;;;18.80;99.90;;;;;;5029496;28;20116;-66
2021/07/09 02:49:14;;;;;;;6.88;6.28;;;18.80;99.90;;;;;;5023596;28;20093;-65
2021/07/09 02:51:41;;;;;;;7.30;6.45;;;18.80;99.90;;;;;;5017980;28;20034;-66
2021/07/09 02:54:07;;;;;;;9.90;6.40;;;18.80;99.90;;;;;;5019540;28;20091;-66
2021/07/09 02:56:33;;;;;;;6.80;6.10;;;18.80;99.80;;;;;;5017843;28;20037;-67
2021/07/09 02:58:59;;;;;;;8.85;6.40;;;18.80;99.80;;;;;;5010949;28;20030;-67
2021/07/09 03:01:25;;;;;;;8.73;6.57;;;18.80;99.90;;;;;;5030977;28;20025;-66
2021/07/09 03:03:55;;;;;;;7.90;6.70;;;18.80;99.90;;;;;;5029168;28;20060;-66
2021/07/09 03:06:21;;;;;;;7.82;6.25;;;18.80;99.80;;;;;;5021981;28;20033;-67
2021/07/09 03:08:48;;;;;;;6.47;5.82;;;18.70;99.90;;;;;;5017936;28;20060;-67
2021/07/09 03:11:14;;;;;;;7.75;6.60;;;18.80;99.90;;;;;;5022944;28;20085;-66
2021/07/09 03:13:40;;;;;;;7.28;6.57;;;18.80;99.90;;;;;;5031308;28;20038;-66
2021/07/09 03:16:06;;;;;;;7.88;7.07;;;18.80;99.90;;;;;;5014965;28;20056;-66
2021/07/09 03:18:32;;;;;;;8.05;6.40;;;18.70;99.90;;;;;;5010304;28;20038;-66
2021/07/09 03:20:58;;;;;;;8.40;7.03;;;18.70;99.90;;;;;;5013592;28;20092;-66
2021/07/09 03:23:24;;;;;;;8.00;6.70;;;18.70;99.90;;;;;;5022526;28;20026;-66
2021/07/09 03:25:49;;;;;;;7.78;6.40;;;18.70;99.90;;;;;;5019919;28;20160;-66
2021/07/09 03:28:15;;;;;;;8.30;6.60;;;18.70;99.90;;;;;;5021658;28;20030;-68
2021/07/09 03:30:42;;;;;;;7.68;6.88;;;18.70;99.90;;;;;;5031144;28;20410;-66
2021/07/09 03:33:09;;;;;;;7.07;6.38;;;18.80;99.90;;;;;;5014431;28;20030;-66
2021/07/09 03:35:35;;;;;;;9.50;7.05;;;18.80;99.90;;;;;;5011431;28;20034;-67
2021/07/09 03:38:01;;;;;;;7.53;6.72;;;18.70;99.90;;;;;;5013381;28;20088;-66
2021/07/09 03:40:26;;;;;;;10.85;8.27;;;18.70;99.90;;;;;;5021413;28;20507;-67
2021/07/09 03:42:52;;;;;;;10.73;8.02;;;18.70;99.90;;;;;;5028449;28;20153;-65
2021/07/09 03:45:19;;;;;;;7.93;7.05;;;18.70;99.80;;;;;;5011046;28;20072;-67
2021/07/09 03:47:46;;;;;;;8.60;7.70;;;18.70;99.90;;;;;;5016382;28;20112;-66
2021/07/09 03:50:13;;;;;;;9.70;7.65;;;18.70;99.90;;;;;;5013392;28;20037;-65
2021/07/09 03:52:38;;;;;;;9.95;8.27;;;18.70;99.90;;;;;;5029674;28;20033;-66
2021/07/09 03:55:06;;;;;;;7.75;6.88;;;18.70;99.50;;;;;;5020962;28;20037;-68
2021/07/09 03:57:32;;;;;;;8.73;7.57;;;18.70;99.90;;;;;;5019823;28;20038;-66
2021/07/09 03:59:58;;;;;;;11.63;8.05;;;18.70;99.90;;;;;;5019699;28;20072;-66
2021/07/09 04:02:24;;;;;;;8.75;7.38;;;18.60;99.70;;;;;;5023482;28;20030;-66
2021/07/09 04:04:49;;;;;;;7.47;6.70;;;18.70;99.90;;;;;;5030266;28;20033;-66
2021/07/09 04:07:15;;;;;;;12.32;7.40;;;18.70;99.70;;;;;;5012151;28;20511;-66
2021/07/09 04:09:41;;;;;;;9.07;6.75;;;18.70;99.90;;;;;;5010743;28;20076;-66
2021/07/09 04:12:07;;;;;;;8.70;7.15;;;18.70;99.90;;;;;;5020397;28;20480;-66
2021/07/09 04:14:33;;;;;;;10.90;8.63;;;18.70;99.90;;;;;;5020936;28;20087;-67
2021/07/09 04:16:59;;;;;;;10.35;7.45;;;18.80;99.90;;;;;;5012487;28;20681;-69
2021/07/09 04:19:24;;;;;;;11.60;8.25;;;18.70;99.80;;;;;;5030565;28;20120;-66
2021/07/09 04:21:50;;;;;;;12.88;7.65;;;18.70;99.90;;;;;;5024702;28;20056;-66
2021/07/09 04:24:16;;;;;;;7.85;7.05;;;18.80;99.90;;;;;;5010602;28;20419;-66
2021/07/09 04:26:42;;;;;;;7.53;6.57;;;18.80;99.90;;;;;;5010756;28;20475;-66
2021/07/09 04:29:08;;;;;;;9.45;8.43;;;18.80;99.90;;;;;;5017893;28;20030;-67
2021/07/09 04:31:34;;;;;;;8.55;7.75;;;18.80;99.50;;;;;;5018990;28;20402;-67
2021/07/09 04:34:00;;;;;;;10.02;7.38;;;18.70;99.90;;;;;;5017760;28;20074;-66
2021/07/09 04:36:26;;;;;;;8.00;7.20;;;18.80;99.90;;;;;;5017430;28;20029;-66
2021/07/09 04:38:51;;;;;;;9.43;7.82;;;18.80;99.90;;;;;;5020682;28;20033;-67
2021/07/09 04:41:17;;;;;;;9.43;7.53;;;18.80;99.90;;;;;;5010437;28;20029;-66
2021/07/09 04:43:43;;;;;;;10.55;8.05;;;18.80;99.90;;;;;;5023626;28;20052;-66
2021/07/09 04:46:08;;;;;;;8.23;7.43;;;18.70;99.90;;;;;;5029969;28;20406;-66
2021/07/09 04:48:34;;;;;;;8.25;7.25;;;18.70;99.90;;;;;;5016597;28;20045;-67
2021/07/09 04:51:04;;;;;;;12.13;8.05;;;18.80;99.90;;;;;;5021310;28;20069;-66
2021/07/09 04:53:30;;;;;;;8.88;7.97;;;18.80;99.90;;;;;;5022110;28;20520;-69
2021/07/09 04:55:56;;;;;;;9.35;8.40;;;18.80;99.90;;;;;;5010322;28;20034;-66
2021/07/09 04:58:22;;;;;;;9.73;8.65;;;18.70;99.80;;;;;;5019847;28;20044;-67
2021/07/09 05:00:48;;;;;;;8.43;7.28;;;18.70;99.70;;;;;;5018068;28;20058;-67
2021/07/09 05:03:14;;;;;;;11.48;8.68;;;18.80;99.80;;;;;;5021107;28;20034;-65
2021/07/09 05:05:40;;;;;;;9.35;8.18;;;18.80;99.90;;;;;;5017068;28;20025;-66
2021/07/09 05:08:06;;;;;;;13.15;8.50;;;18.80;99.60;;;;;;5028694;28;20030;-66
2021/07/09 05:10:32;;;;;;;10.55;8.05;;;18.80;99.40;;;;;;5028501;28;20028;-66
2021/07/09 05:12:57;;;;;;;11.23;8.23;;;18.80;99.50;;;;;;5020271;28;20052;-65
2021/07/09 05:15:23;;;;;;;10.75;7.55;;;18.90;99.40;;;;;;5020674;28;20030;-66
2021/07/09 05:17:49;;;;;;;7.85;6.65;;;18.90;99.60;;;;;;5015972;28;20041;-66
2021/07/09 05:20:14;;;;;;;11.07;8.02;;;19.00;99.60;;;;;;5033605;28;20056;-67
2021/07/09 05:22:41;;;;;;;11.95;7.80;;;19.00;99.50;;;;;;5033269;28;20026;-66
2021/07/09 05:25:07;;;;;;;7.43;6.72;;;19.10;99.40;;;;;;5023888;28;20034;-66
2021/07/09 05:27:33;;;;;;;9.32;6.40;;;19.10;99.40;;;;;;5012792;28;20029;-66
2021/07/09 05:29:59;;;;;;;10.60;8.32;;;19.20;99.50;;;;;;5013672;28;20113;-66
2021/07/09 05:32:27;;;;;;;9.23;7.13;;;19.10;98.50;;;;;;5022094;28;20033;-67
2021/07/09 05:34:54;;;;;;;8.52;6.55;;;19.10;98.90;;;;;;5028012;28;20030;-66
2021/07/09 05:37:20;;;;;;;11.65;7.97;;;19.10;99.00;;;;;;5025292;28;20026;-67
2021/07/09 05:39:46;;;;;;;8.60;7.15;;;19.20;99.00;;;;;;5013895;28;20036;-66
2021/07/09 05:42:12;;;;;;;11.05;6.82;;;19.20;99.10;;;;;;5022200;28;20041;-67
2021/07/09 05:44:38;;;;;;;8.15;7.35;;;19.20;99.30;;;;;;5032916;28;20128;-67
2021/07/09 05:47:04;;;;;;;7.55;6.20;;;19.30;99.00;;;;;;5028910;28;20468;-66
2021/07/09 05:49:30;;;;;;;8.40;5.82;;;19.30;99.10;;;;;;5018301;28;20037;-67
2021/07/09 05:51:56;;;;;;;8.57;6.45;;;19.40;99.10;;;;;;5026065;28;20026;-66
2021/07/09 05:54:22;;;;;;;11.77;7.20;;;19.40;99.10;;;;;;5016552;28;20487;-67
2021/07/09 05:56:48;;;;;;;6.40;5.72;;;19.40;98.70;;;;;;5028541;28;20403;-69
2021/07/09 05:59:14;;;;;;;9.20;6.43;;;19.40;98.90;;;;;;5031411;28;20051;-68
2021/07/09 06:01:39;;;;;;;9.48;6.68;;;19.50;98.90;;;;;;5013181;28;20642;-67
2021/07/09 06:04:05;;;;;;;6.97;6.28;;;19.60;98.90;;;;;;5012463;28;20063;-66
2021/07/09 06:06:31;;;;;;;8.02;5.50;;;19.60;98.80;;;;;;5021888;28;20029;-66
2021/07/09 06:08:57;;;;;;;6.47;5.47;;;19.60;98.60;;;;;;5019104;28;20083;-67
2021/07/09 06:11:25;;;;;;;7.32;5.40;;;19.60;98.70;;;;;;5028065;28;20133;-67
2021/07/09 06:13:52;;;;;;;6.95;5.43;;;19.70;98.70;;;;;;5012752;28;20400;-66
2021/07/09 06:16:17;;;;;;;7.72;5.72;;;19.70;98.60;;;;;;5022417;28;20036;-66
2021/07/09 06:18:43;;;;;;;6.43;5.38;;;19.80;98.60;;;;;;5031089;28;20025;-66
2021/07/09 06:21:09;;;;;;;6.05;5.22;;;19.80;98.60;;;;;;5029477;28;20049;-66
2021/07/09 06:23:35;;;;;;;6.45;5.60;;;19.90;98.60;;;;;;5021348;28;20119;-66
2021/07/09 06:26:00;;;;;;;8.10;5.45;;;19.90;98.60;;;;;;5021140;28;20069;-68
2021/07/09 06:28:26;;;;;;;7.43;6.05;;;19.90;98.50;;;;;;5024443;28;20029;-66
2021/07/09 06:30:52;;;;;;;8.40;5.57;;;19.90;98.30;;;;;;5031122;28;20514;-66
2021/07/09 06:33:17;;;;;;;7.85;6.55;;;19.90;98.70;;;;;;5014025;28;20044;-66
2021/07/09 06:35:43;;;;;;;8.77;5.38;;;19.80;97.80;;;;;;5012457;28;20026;-67
2021/07/09 06:38:09;;;;;;;5.45;4.35;;;19.90;98.10;;;;;;5023192;28;20034;-66
2021/07/09 06:40:35;;;;;;;6.35;5.05;;;19.90;98.30;;;;;;5015422;28;20053;-68
2021/07/09 06:43:01;;;;;;;5.57;4.88;;;20.00;98.30;;;;;;5030825;28;20092;-66
2021/07/09 06:45:26;;;;;;;5.53;4.20;;;20.00;98.30;;;;;;5024012;28;20092;-66
2021/07/09 06:47:52;;;;;;;8.20;4.88;;;20.00;98.30;;;;;;5017612;28;20061;-67
2021/07/09 06:50:18;;;;;;;5.00;3.70;;;20.00;97.90;;;;;;5018184;28;20108;-66
2021/07/09 06:52:45;;;;;;;7.80;5.75;;;20.00;98.10;;;;;;5027424;28;20121;-66
2021/07/09 06:55:12;;;;;;;6.40;5.00;;;20.00;97.60;;;;;;5028500;28;20037;-67
2021/07/09 06:57:38;;;;;;;6.93;4.60;;;20.00;97.50;;;;;;5010845;28;20538;-68
2021/07/09 07:00:07;;;;;;;4.50;3.85;;;20.00;97.20;;;;;;5011892;28;20034;-67
2021/07/09 07:02:34;;;;;;;5.03;3.85;;;20.10;97.40;;;;;;5015440;28;20495;-67
2021/07/09 07:05:00;;;;;;;5.22;4.53;;;20.10;97.40;;;;;;5023087;28;20032;-67
2021/07/09 07:07:27;;;;;;;4.78;3.75;;;20.10;97.20;;;;;;5019961;28;20076;-66
2021/07/09 07:09:53;;;;;;;5.63;4.00;;;20.20;97.50;;;;;;5019410;28;20088;-69
2021/07/09 07:12:18;;;;;;;6.22;4.90;;;20.20;97.50;;;;;;5021200;28;20029;-66
2021/07/09 07:14:44;;;;;;;7.22;4.80;;;20.30;96.80;;;;;;5028159;28;20115;-67
2021/07/09 07:17:10;;;;;;;15.00;5.47;;;20.30;96.80;;;;;;5018481;28;20061;-69
2021/07/09 07:19:36;;;;;;;8.07;5.47;;;20.30;97.10;;;;;;5022656;28;20029;-67
2021/07/09 07:22:02;;;;;;;6.40;4.20;;;20.30;97.20;;;;;;5025044;28;20021;-67
2021/07/09 07:24:29;;;;;;;4.85;4.30;;;20.40;97.30;;;;;;5023281;28;20025;-67
2021/07/09 07:26:56;;;;;;;8.20;4.65;;;20.40;97.20;;;;;;5014464;28;20110;-68
2021/07/09 07:29:23;;;;;;;6.45;4.55;;;20.30;96.50;;;;;;5030514;28;20029;-67
2021/07/09 07:31:48;;;;;;;8.00;3.90;;;20.30;96.40;;;;;;5021697;28;20212;-67
2021/07/09 07:34:14;;;;;;;4.85;4.07;;;20.30;96.50;;;;;;5011127;28;20108;-68
2021/07/09 07:36:40;;;;;;;6.85;4.50;;;20.40;96.80;;;;;;5013386;28;20065;-67
2021/07/09 07:39:06;;;;;;;6.53;4.43;;;20.40;96.70;;;;;;5022558;28;20028;-67
2021/07/09 07:41:32;;;;;;;5.55;4.50;;;20.40;96.60;;;;;;5021458;28;20072;-67
2021/07/09 07:43:59;;;;;;;6.85;4.40;;;20.50;96.80;;;;;;5014759;28;20029;-68
2021/07/09 07:46:25;;;;;;;5.50;4.45;;;20.50;96.50;;;;;;5028460;28;20041;-67
2021/07/09 07:48:51;;;;;;;7.40;4.45;;;20.50;96.10;;;;;;5021799;28;20037;-67
2021/07/09 07:51:17;;;;;;;6.43;4.68;;;20.50;96.40;;;;;;5021665;28;20769;-67
2021/07/09 07:53:43;;;;;;;4.90;4.40;;;20.50;95.50;;;;;;5015152;28;20136;-67
2021/07/09 07:56:09;;;;;;;7.40;4.57;;;20.40;95.80;;;;;;5030625;28;20026;-67
2021/07/09 07:58:36;;;;;;;8.10;5.28;;;20.50;96.00;;;;;;5017574;28;20025;-67
2021/07/09 08:01:02;;;;;;;5.40;4.22;;;20.40;95.50;;;;;;5010952;28;20038;-68
2021/07/09 08:03:28;;;;;;;6.50;4.22;;;20.50;95.90;;;;;;5011766;28;20034;-68
2021/07/09 08:05:53;;;;;;;9.80;4.60;;;20.60;96.00;;;;;;5020701;28;20117;-69
2021/07/09 08:08:19;;;;;;;5.78;4.70;;;20.60;95.60;;;;;;5018868;28;20549;-66
2021/07/09 08:10:45;;;;;;;5.55;4.32;;;20.60;95.30;;;;;;5023664;28;20077;-66
2021/07/09 08:13:10;;;;;;;5.57;4.80;;;20.60;95.00;;;;;;5011186;28;20113;-66
2021/07/09 08:15:36;;;;;;;6.38;4.18;;;20.60;94.80;;;;;;5013341;28;20042;-67
2021/07/09 08:18:02;;;;;;;5.95;4.10;;;20.60;94.60;;;;;;5026143;28;20084;-67
2021/07/09 08:20:28;;;;;;;5.05;3.75;;;20.70;94.90;;;;;;5020228;28;20065;-69
2021/07/09 08:22:54;;;;;;;6.65;3.72;;;20.70;95.20;;;;;;5019729;28;20026;-67
2021/07/09 08:25:20;;;;;;;4.13;3.33;;;20.70;94.90;;;;;;5017354;28;20125;-67
2021/07/09 08:27:46;;;;;;;5.50;4.03;;;20.70;95.20;;;;;;5024793;28;20116;-66
2021/07/09 08:30:12;;;;;;;7.93;3.63;;;20.70;95.50;;;;;;5029685;28;20037;-67
2021/07/09 08:32:38;;;;;;;4.72;3.75;;;20.70;95.70;;;;;;5010599;28;20066;-67
2021/07/09 08:35:05;;;;;;;4.57;3.78;;;20.70;95.60;;;;;;5011922;28;20064;-68
2021/07/09 08:37:31;;;;;;;5.55;3.75;;;20.70;95.40;;;;;;5016277;28;20022;-66
2021/07/09 08:39:57;;;;;;;4.28;3.17;;;20.70;95.30;;;;;;5018794;28;20036;-68
2021/07/09 08:42:23;;;;;;;5.20;3.60;;;20.70;95.70;;;;;;5023117;28;20045;-67
2021/07/09 08:44:49;;;;;;;4.50;3.10;;;20.80;96.00;;;;;;5010662;28;20109;-66
2021/07/09 08:47:14;;;;;;;5.88;3.30;;;20.90;95.60;;;;;;5015490;28;20111;-68
2021/07/09 08:49:41;;;;;;;4.28;3.58;;;21.00;95.60;;;;;;5022756;28;20033;-66
2021/07/09 08:52:07;;;;;;;4.72;3.55;;;21.00;95.20;;;;;;5020442;28;20029;-68
2021/07/09 08:54:34;;;;;;;3.85;3.30;;;21.10;95.20;;;;;;5029291;28;20040;-67
2021/07/09 08:57:00;;;;;;;10.38;3.80;;;21.10;94.40;;;;;;5013940;28;20088;-69
2021/07/09 08:59:26;;;;;;;5.40;4.15;;;21.10;93.60;;;;;;5026857;28;20034;-66
2021/07/09 09:01:54;;;;;;;5.43;3.40;;;21.10;93.00;;;;;;5033942;28;20040;-67
2021/07/09 09:04:30;;;;;;;4.45;2.78;;;21.10;93.30;;;;;;5015419;28;20088;-66
2021/07/09 09:07:01;;;;;;;4.82;3.08;;;21.20;93.10;;;;;;5013293;28;20033;-66
2021/07/09 09:09:27;;;;;;;4.20;3.00;;;21.40;94.00;;;;;;5020077;28;20037;-68
2021/07/09 09:12:05;;;;;;;3.53;2.85;;;21.50;94.00;;;;;;5025364;28;20041;-67
2021/07/09 09:14:40;;;;;;;3.70;3.25;;;21.50;93.90;;;;;;5017593;28;20072;-66
2021/07/09 09:17:28;;;;;;;4.45;2.80;;;21.50;93.90;;;;;;5019184;28;20065;-67
2021/07/09 09:20:13;;;;;;;4.03;3.10;;;21.50;93.80;;;;;;5032605;28;20513;-66
2021/07/09 09:22:48;;;;;;;3.85;3.08;;;21.50;93.80;;;;;;5027070;28;20037;-66
2021/07/09 09:25:19;;;;;;;6.47;3.80;;;21.60;93.80;;;;;;5018659;28;20025;-67
2021/07/09 09:27:56;;;;;;;4.65;3.40;;;21.60;93.00;;;;;;5018903;28;20537;-66
2021/07/09 09:30:21;;;;;;;4.85;3.00;;;21.70;93.40;;;;;;5020006;28;20065;-66
2021/07/09 09:32:51;;;;;;;5.75;3.17;;;21.80;92.90;;;;;;5029618;28;20641;-67
2021/07/09 09:35:28;;;;;;;5.10;3.28;;;21.70;91.60;;;;;;5033090;28;20505;-67
2021/07/09 09:38:01;;;;;;;4.57;3.10;;;21.70;92.40;;;;;;5029364;28;20345;-66
2021/07/09 09:40:28;;;;;;;2.80;2.60;;;21.80;92.30;;;;;;5029315;28;20495;-67
2021/07/09 09:42:55;;;;;;;3.90;2.50;;;21.70;91.30;;;;;;5024510;28;20120;-68
2021/07/09 09:45:26;;;;;;;6.40;3.53;;;21.70;90.90;;;;;;5020855;28;20029;-67
2021/07/09 09:47:52;;;;;;;3.65;3.20;;;21.60;91.20;;;;;;5023901;28;20030;-66
2021/07/09 09:50:20;;;;;;;4.97;3.67;;;21.60;91.70;;;;;;5021036;28;20046;-68
2021/07/09 09:52:49;;;;;;;3.22;2.65;;;21.70;92.60;;;;;;5020565;28;20427;-69
2021/07/09 09:55:29;;;;;;;5.05;3.00;;;21.70;92.50;;;;;;5026665;28;20124;-68
2021/07/09 09:58:12;;;;;;;4.60;2.97;;;21.70;92.40;;;;;;5022806;28;20036;-67
2021/07/09 10:00:39;;;;;;;4.93;3.00;;;21.70;92.30;;;;;;5020317;28;20269;-66
2021/07/09 10:03:06;;;;;;;3.60;2.90;;;21.60;92.10;;;;;;5032262;28;20048;-69
2021/07/09 10:05:36;;;;;;;3.55;2.90;;;21.60;92.00;;;;;;5032932;28;20033;-67
2021/07/09 10:08:03;;;;;;;4.70;3.42;;;21.60;92.30;;;;;;5031571;28;20059;-66
2021/07/09 10:10:31;;;;;;;4.53;3.10;;;21.60;92.40;;;;;;5032855;28;20025;-67
2021/07/09 10:12:57;;;;;;;4.35;3.20;;;21.60;93.00;;;;;;5031246;28;20030;-66
2021/07/09 10:15:26;;;;;;;4.93;3.50;;;21.50;92.20;;;;;;5023127;28;20403;-69
2021/07/09 10:17:54;;;;;;;5.47;3.55;;;21.50;92.70;;;;;;5018360;28;20112;-67
2021/07/09 10:20:21;;;;;;;8.18;3.30;;;21.50;92.70;;;;;;5021307;28;20030;-67
2021/07/09 10:22:48;;;;;;;4.20;2.92;;;21.50;92.40;;;;;;5026088;28;20076;-67
2021/07/09 10:25:16;;;;;;;3.97;3.45;;;21.50;92.70;;;;;;5015554;28;20108;-67
2021/07/09 10:27:43;;;;;;;4.35;3.47;;;21.50;92.50;;;;;;5031380;28;20029;-66
2021/07/09 10:30:09;;;;;;;4.60;3.33;;;21.50;91.80;;;;;;5023901;28;20042;-66
2021/07/09 10:32:38;;;;;;;4.15;3.00;;;21.50;91.70;;;;;;5012564;28;20361;-67
2021/07/09 10:35:06;;;;;;;5.88;3.22;;;21.60;92.10;;;;;;5016168;28;20047;-67
2021/07/09 10:37:32;;;;;;;4.00;2.80;;;21.70;91.50;;;;;;5019729;28;20040;-66
2021/07/09 10:40:12;;;;;;;3.08;2.78;;;21.70;92.20;;;;;;5023765;28;20037;-67
2021/07/09 10:42:42;;;;;;;5.10;2.92;;;21.80;92.10;;;;;;5017406;28;20041;-68
2021/07/09 10:45:25;;;;;;;3.95;2.60;;;21.80;91.20;;;;;;5012938;28;20030;-67
2021/07/09 10:48:03;;;;;;;3.55;2.33;;;21.70;91.40;;;;;;5021924;28;20033;-67
2021/07/09 10:50:49;;;;;;;3.40;2.95;;;21.80;91.50;;;;;;5025364;28;20041;-67
2021/07/09 10:53:14;;;;;;;3.63;2.80;;;21.90;92.00;;;;;;5017386;28;20041;-66
2021/07/09 10:55:44;;;;;;;4.80;3.67;;;21.90;91.50;;;;;;5021171;28;20033;-68
2021/07/09 10:58:10;;;;;;;7.28;2.95;;;21.90;91.00;;;;;;5022635;28;20512;-68
2021/07/09 11:01:13;;;;;;;3.88;2.95;;;21.90;91.40;;;;;;5017210;28;20041;-67
2021/07/09 11:03:42;;;;;;;3.72;3.20;;;22.00;91.70;;;;;;5016154;28;20036;-67
2021/07/09 11:06:15;;;;;;;5.28;3.10;;;22.00;91.80;;;;;;5031488;28;20023;-67
2021/07/09 11:09:02;;;;;;;22.48;9.25;;;22.00;91.80;;;;;;5023938;28;20030;-67
2021/07/09 11:11:51;;;;;;;46.78;19.38;;;21.90;90.70;;;;;;5018583;28;20480;-66
2021/07/09 11:14:34;;;;;;;19.98;9.00;;;21.90;90.90;;;;;;5014702;28;20041;-67
2021/07/09 11:17:15;;;;;;;20.40;9.07;;;21.90;91.00;;;;;;5030159;28;20476;-68
2021/07/09 11:19:41;;;;;;;10.63;6.38;;;21.90;91.30;;;;;;5031234;28;20075;-66
2021/07/09 11:22:09;;;;;;;9.38;4.95;;;21.90;91.30;;;;;;5031430;28;20026;-66
2021/07/09 11:24:52;;;;;;;8.68;4.50;;;21.90;91.60;;;;;;5023496;28;20101;-68
2021/07/09 11:27:21;;;;;;;4.95;3.40;;;21.90;92.10;;;;;;5019138;28;20869;-66
2021/07/09 11:29:47;;;;;;;5.78;3.05;;;21.80;91.60;;;;;;5028376;28;20132;-66
2021/07/09 11:32:16;;;;;;;5.78;3.97;;;21.80;91.10;;;;;;5031757;28;20780;-66
2021/07/09 11:34:51;;;;;;;3.60;2.75;;;21.80;91.30;;;;;;5026367;28;20375;-67
2021/07/09 11:37:29;;;;;;;4.97;3.15;;;21.80;91.10;;;;;;5007545;28;20088;-67
2021/07/09 11:39:57;;;;;;;6.20;3.58;;;21.80;91.30;;;;;;5016570;28;20408;-66
2021/07/09 11:42:27;;;;;;;3.97;3.00;;;21.80;91.00;;;;;;5021387;28;20033;-66
2021/07/09 11:44:58;;;;;;;3.95;3.08;;;21.80;91.30;;;;;;5013710;28;20030;-67
2021/07/09 11:47:29;;;;;;;5.57;3.20;;;21.70;91.10;;;;;;5023488;28;20034;-67
2021/07/09 11:49:58;;;;;;;4.88;3.05;;;21.70;91.60;;;;;;5021982;28;20045;-69
2021/07/09 11:52:29;;;;;;;3.60;3.30;;;21.80;91.90;;;;;;5017449;28;20041;-67
2021/07/09 11:54:57;;;;;;;8.43;7.63;;;21.80;91.60;;;;;;5024741;28;20382;-67
2021/07/09 11:57:29;;;;;;;453.48;288.77;;;21.80;91.40;;;;;;5019836;28;20037;-67
2021/07/09 11:59:57;;;;;;;113.75;77.03;;;21.80;91.50;;;;;;5011162;28;20278;-67
2021/07/09 12:02:30;;;;;;;83.28;62.10;;;21.70;91.20;;;;;;5011094;28;20076;-68
2021/07/09 12:04:58;;;;;;;26.25;23.35;;;21.60;91.20;;;;;;5025972;28;20049;-66
2021/07/09 12:07:32;;;;;;;10.88;8.98;;;21.70;91.80;;;;;;5029474;28;20022;-66
2021/07/09 12:10:04;;;;;;;5.40;4.85;;;21.70;92.20;;;;;;5030107;28;20564;-69
2021/07/09 12:12:38;;;;;;;7.78;3.60;;;21.70;92.50;;;;;;5023649;28;20361;-67
2021/07/09 12:15:08;;;;;;;4.53;3.97;;;21.70;92.70;;;;;;5019047;28;20471;-66
2021/07/09 12:17:37;;;;;;;4.95;3.70;;;21.60;92.60;;;;;;5023357;28;20026;-66
2021/07/09 12:20:08;;;;;;;3.92;3.47;;;21.60;92.90;;;;;;5010553;28;20033;-67
2021/07/09 12:23:02;;;;;;;5.10;4.03;;;21.50;92.90;;;;;;5022561;28;20025;-67
2021/07/09 12:25:33;;;;;;;4.65;4.03;;;21.50;92.90;;;;;;5028876;28;20052;-66
2021/07/09 12:28:05;;;;;;;3.92;3.40;;;21.40;93.10;;;;;;5019233;28;20029;-67
2021/07/09 12:30:36;;;;;;;3.50;3.20;;;21.40;93.30;;;;;;5028506;28;20424;-66
2021/07/09 12:33:10;;;;;;;4.38;3.50;;;21.40;93.50;;;;;;5016784;28;20429;-67
2021/07/09 12:35:35;;;;;;;4.68;3.88;;;21.40;93.60;;;;;;5034275;28;20044;-66
2021/07/09 12:38:12;;;;;;;4.40;4.00;;;21.40;93.80;;;;;;5022888;28;20037;-67
2021/07/09 12:40:39;;;;;;;4.60;4.10;;;21.40;93.80;;;;;;5014505;28;20028;-67
2021/07/09 12:43:15;;;;;;;3.92;3.63;;;21.40;93.80;;;;;;5014595;28;20144;-67
2021/07/09 12:45:42;;;;;;;4.28;3.88;;;21.40;93.80;;;;;;5024783;28;20361;-67
2021/07/09 12:48:08;;;;;;;4.85;4.30;;;21.50;93.60;;;;;;5026877;28;20037;-66
2021/07/09 12:50:41;;;;;;;4.85;4.10;;;21.50;93.40;;;;;;5030512;28;20438;-66